sensor_id;sensor_type;location;lat;lon;timestamp;pressure;altitude;pressure_sealevel;temperature;humidity
32109;BME280;18624;50.042;8.436;2023-05-09T00:01:12;100558.81;;;14.26;100.00
32109;BME280;18624;50.042;8.436;2023-05-09T00:03:39;100687.94;;;15.06;100.00
32109;BME280;18624;50.042;8.436;2023-05-09T00:06:07;100670.84;;;14.98;100.00
32109;BME280;18624;50.042;8.436;2023-05-09T00:08:34;100667.03;;;14.96;100.00
32109;BME280;18624;50.042;8.436;2023-05-09T00:11:01;100609.63;;;14.59;100.00
32109;BME280;18624;50.042;8.436;2023-05-09T00:13:27;100679.00;;;15.02;100.00
32109;BME280;18624;50.042;8.436;2023-05-09T00:15:54;100692.97;;;15.07;100.00
32109;BME280;18624;50.042;8.436;2023-05-09T00:18:22;100677.00;;;15.02;100.00
32109;BME280;18624;50.042;8.436;2023-05-09T00:20:49;100504.31;;;13.86;100.00
32109;BME280;18624;50.042;8.436;2023-05-09T00:23:16;100676.72;;;15.00;100.00
32109;BME280;18624;50.042;8.436;2023-05-09T00:25:43;100736.91;;;15.45;100.00
32109;BME280;18624;50.042;8.436;2023-05-09T00:28:09;100739.09;;;15.51;100.00
32109;BME280;18624;50.042;8.436;2023-05-09T00:30:35;100639.50;;;14.83;100.00
32109;BME280;18624;50.042;8.436;2023-05-09T00:33:02;100666.09;;;14.99;100.00
32109;BME280;18624;50.042;8.436;2023-05-09T00:35:29;100429.38;;;13.47;100.00
32109;BME280;18624;50.042;8.436;2023-05-09T00:37:57;100572.41;;;14.42;100.00
32109;BME280;18624;50.042;8.436;2023-05-09T00:40:24;100558.34;;;14.27;100.00
32109;BME280;18624;50.042;8.436;2023-05-09T00:42:51;100542.66;;;14.15;100.00
32109;BME280;18624;50.042;8.436;2023-05-09T00:45:17;100652.00;;;14.97;100.00
32109;BME280;18624;50.042;8.436;2023-05-09T00:47:44;100684.56;;;15.11;100.00
32109;BME280;18624;50.042;8.436;2023-05-09T00:50:10;100645.53;;;14.90;100.00
32109;BME280;18624;50.042;8.436;2023-05-09T00:52:37;100720.59;;;15.38;100.00
32109;BME280;18624;50.042;8.436;2023-05-09T00:55:04;100691.84;;;15.17;100.00
32109;BME280;18624;50.042;8.436;2023-05-09T00:57:33;100563.50;;;14.38;100.00
32109;BME280;18624;50.042;8.436;2023-05-09T01:00:00;100619.22;;;14.77;100.00
32109;BME280;18624;50.042;8.436;2023-05-09T01:02:27;100614.78;;;14.79;100.00
32109;BME280;18624;50.042;8.436;2023-05-09T01:04:54;100661.72;;;15.10;100.00
32109;BME280;18624;50.042;8.436;2023-05-09T01:07:31;100629.41;;;14.89;100.00
32109;BME280;18624;50.042;8.436;2023-05-09T01:10:25;100711.84;;;15.40;100.00
32109;BME280;18624;50.042;8.436;2023-05-09T01:16:35;100657.72;;;15.11;100.00
32109;BME280;18624;50.042;8.436;2023-05-09T01:19:18;100671.91;;;15.23;100.00
32109;BME280;18624;50.042;8.436;2023-05-09T01:21:54;100619.25;;;14.86;100.00
32109;BME280;18624;50.042;8.436;2023-05-09T01:24:30;100700.25;;;15.45;100.00
32109;BME280;18624;50.042;8.436;2023-05-09T01:27:11;100688.22;;;15.39;100.00
32109;BME280;18624;50.042;8.436;2023-05-09T01:29:50;100557.16;;;14.50;100.00
32109;BME280;18624;50.042;8.436;2023-05-09T01:32:22;100590.03;;;14.66;100.00
32109;BME280;18624;50.042;8.436;2023-05-09T01:34:51;100544.38;;;14.43;100.00
32109;BME280;18624;50.042;8.436;2023-05-09T01:37:23;100540.38;;;14.44;100.00
32109;BME280;18624;50.042;8.436;2023-05-09T01:39:55;100681.16;;;15.38;100.00
32109;BME280;18624;50.042;8.436;2023-05-09T01:42:27;100565.81;;;14.61;100.00
32109;BME280;18624;50.042;8.436;2023-05-09T01:44:54;100622.56;;;15.03;100.00
32109;BME280;18624;50.042;8.436;2023-05-09T01:47:24;100589.06;;;14.82;100.00
32109;BME280;18624;50.042;8.436;2023-05-09T01:49:51;100601.81;;;14.89;100.00
32109;BME280;18624;50.042;8.436;2023-05-09T01:52:19;100476.47;;;14.06;100.00
32109;BME280;18624;50.042;8.436;2023-05-09T01:54:47;100573.81;;;14.68;100.00
32109;BME280;18624;50.042;8.436;2023-05-09T01:57:16;100552.84;;;14.49;100.00
32109;BME280;18624;50.042;8.436;2023-05-09T01:59:44;100624.25;;;15.00;100.00
32109;BME280;18624;50.042;8.436;2023-05-09T02:02:12;100668.22;;;15.26;100.00
32109;BME280;18624;50.042;8.436;2023-05-09T02:04:40;100666.22;;;15.26;100.00
32109;BME280;18624;50.042;8.436;2023-05-09T02:07:08;100642.81;;;15.00;100.00
32109;BME280;18624;50.042;8.436;2023-05-09T02:09:35;100597.28;;;14.73;100.00
32109;BME280;18624;50.042;8.436;2023-05-09T02:12:01;100629.41;;;14.89;100.00
32109;BME280;18624;50.042;8.436;2023-05-09T02:14:30;100635.56;;;14.93;100.00
32109;BME280;18624;50.042;8.436;2023-05-09T02:16:56;100612.75;;;14.71;100.00
32109;BME280;18624;50.042;8.436;2023-05-09T02:19:23;100602.94;;;14.69;100.00
32109;BME280;18624;50.042;8.436;2023-05-09T02:21:50;100500.81;;;14.07;100.00
32109;BME280;18624;50.042;8.436;2023-05-09T02:24:16;100486.50;;;14.00;100.00
32109;BME280;18624;50.042;8.436;2023-05-09T02:26:42;100603.88;;;14.76;100.00
32109;BME280;18624;50.042;8.436;2023-05-09T02:29:09;100610.22;;;14.85;100.00
32109;BME280;18624;50.042;8.436;2023-05-09T02:31:38;100653.91;;;15.09;100.00
32109;BME280;18624;50.042;8.436;2023-05-09T02:34:07;100616.84;;;14.88;100.00
32109;BME280;18624;50.042;8.436;2023-05-09T02:36:34;100560.53;;;14.54;100.00
32109;BME280;18624;50.042;8.436;2023-05-09T02:39:01;100568.38;;;14.56;100.00
32109;BME280;18624;50.042;8.436;2023-05-09T02:41:28;100572.97;;;14.59;100.00
32109;BME280;18624;50.042;8.436;2023-05-09T02:43:55;100516.81;;;14.22;100.00
32109;BME280;18624;50.042;8.436;2023-05-09T02:46:21;100544.50;;;14.40;100.00
32109;BME280;18624;50.042;8.436;2023-05-09T02:48:48;100645.28;;;15.07;100.00
32109;BME280;18624;50.042;8.436;2023-05-09T02:51:14;100541.09;;;14.36;100.00
32109;BME280;18624;50.042;8.436;2023-05-09T02:53:41;100569.28;;;14.53;100.00
32109;BME280;18624;50.042;8.436;2023-05-09T02:56:07;100553.09;;;14.42;100.00
32109;BME280;18624;50.042;8.436;2023-05-09T02:58:35;100509.91;;;14.17;100.00
32109;BME280;18624;50.042;8.436;2023-05-09T03:01:01;100625.41;;;14.90;100.00
32109;BME280;18624;50.042;8.436;2023-05-09T03:03:28;100568.50;;;14.52;100.00
32109;BME280;18624;50.042;8.436;2023-05-09T03:05:55;100511.13;;;14.16;100.00
32109;BME280;18624;50.042;8.436;2023-05-09T03:08:21;100394.50;;;13.31;100.00
32109;BME280;18624;50.042;8.436;2023-05-09T03:10:48;100554.19;;;14.44;100.00
32109;BME280;18624;50.042;8.436;2023-05-09T03:13:14;100494.19;;;14.05;100.00
32109;BME280;18624;50.042;8.436;2023-05-09T03:15:41;100570.56;;;14.61;100.00
32109;BME280;18624;50.042;8.436;2023-05-09T03:18:10;100488.25;;;14.06;100.00
32109;BME280;18624;50.042;8.436;2023-05-09T03:20:37;100530.72;;;14.40;100.00
32109;BME280;18624;50.042;8.436;2023-05-09T03:23:04;100575.81;;;14.68;100.00
32109;BME280;18624;50.042;8.436;2023-05-09T03:25:30;100537.00;;;14.40;100.00
32109;BME280;18624;50.042;8.436;2023-05-09T03:27:57;100624.34;;;14.87;100.00
32109;BME280;18624;50.042;8.436;2023-05-09T03:30:24;100544.66;;;14.36;100.00
32109;BME280;18624;50.042;8.436;2023-05-09T03:32:53;100610.69;;;14.84;100.00
32109;BME280;18624;50.042;8.436;2023-05-09T03:35:19;100570.81;;;14.54;100.00
32109;BME280;18624;50.042;8.436;2023-05-09T03:37:45;100610.03;;;14.80;100.00
32109;BME280;18624;50.042;8.436;2023-05-09T03:40:12;100366.56;;;13.20;100.00
32109;BME280;18624;50.042;8.436;2023-05-09T03:42:45;100610.81;;;14.80;100.00
32109;BME280;18624;50.042;8.436;2023-05-09T03:45:11;100442.34;;;13.68;100.00
32109;BME280;18624;50.042;8.436;2023-05-09T03:47:39;100513.41;;;14.17;100.00
32109;BME280;18624;50.042;8.436;2023-05-09T03:50:06;100461.28;;;13.79;100.00
32109;BME280;18624;50.042;8.436;2023-05-09T03:52:33;100356.56;;;13.13;100.00
32109;BME280;18624;50.042;8.436;2023-05-09T03:55:00;100595.72;;;14.72;100.00
32109;BME280;18624;50.042;8.436;2023-05-09T03:57:30;100473.53;;;13.78;100.00
32109;BME280;18624;50.042;8.436;2023-05-09T03:59:56;100552.34;;;14.41;100.00
32109;BME280;18624;50.042;8.436;2023-05-09T04:02:23;100568.81;;;14.54;100.00
32109;BME280;18624;50.042;8.436;2023-05-09T04:04:50;100472.53;;;13.94;100.00
32109;BME280;18624;50.042;8.436;2023-05-09T04:07:18;100457.81;;;13.88;100.00
32109;BME280;18624;50.042;8.436;2023-05-09T04:09:45;100489.97;;;14.13;100.00
32109;BME280;18624;50.042;8.436;2023-05-09T04:12:12;100528.59;;;14.44;100.00
32109;BME280;18624;50.042;8.436;2023-05-09T04:14:38;100568.72;;;14.67;100.00
32109;BME280;18624;50.042;8.436;2023-05-09T04:17:05;100598.53;;;14.81;100.00
32109;BME280;18624;50.042;8.436;2023-05-09T04:19:31;100506.13;;;14.24;100.00
32109;BME280;18624;50.042;8.436;2023-05-09T04:21:58;100516.09;;;14.30;100.00
32109;BME280;18624;50.042;8.436;2023-05-09T04:24:26;100508.59;;;14.31;100.00
32109;BME280;18624;50.042;8.436;2023-05-09T04:26:52;100600.00;;;14.95;100.00
32109;BME280;18624;50.042;8.436;2023-05-09T04:29:21;100441.28;;;13.88;100.00
32109;BME280;18624;50.042;8.436;2023-05-09T04:31:52;100512.13;;;14.31;100.00
32109;BME280;18624;50.042;8.436;2023-05-09T04:34:21;100553.19;;;14.51;100.00
32109;BME280;18624;50.042;8.436;2023-05-09T04:36:48;100511.09;;;14.38;100.00
32109;BME280;18624;50.042;8.436;2023-05-09T04:39:14;100487.84;;;14.17;100.00
32109;BME280;18624;50.042;8.436;2023-05-09T04:41:50;100539.69;;;14.53;100.00
32109;BME280;18624;50.042;8.436;2023-05-09T04:44:17;100449.59;;;13.97;100.00
32109;BME280;18624;50.042;8.436;2023-05-09T04:46:43;100464.50;;;14.09;100.00
32109;BME280;18624;50.042;8.436;2023-05-09T04:49:10;100559.75;;;14.76;100.00
32109;BME280;18624;50.042;8.436;2023-05-09T04:51:36;100541.31;;;14.63;100.00
32109;BME280;18624;50.042;8.436;2023-05-09T04:54:03;100570.06;;;14.84;100.00
32109;BME280;18624;50.042;8.436;2023-05-09T04:56:33;100445.81;;;14.04;100.00
32109;BME280;18624;50.042;8.436;2023-05-09T04:58:59;100589.44;;;15.03;100.00
32109;BME280;18624;50.042;8.436;2023-05-09T05:01:27;100548.06;;;14.72;100.00
32109;BME280;18624;50.042;8.436;2023-05-09T05:03:54;100579.50;;;15.05;100.00
32109;BME280;18624;50.042;8.436;2023-05-09T05:06:20;100579.81;;;15.07;100.00
32109;BME280;18624;50.042;8.436;2023-05-09T05:08:47;100554.63;;;14.96;100.00
32109;BME280;18624;50.042;8.436;2023-05-09T05:11:13;100491.16;;;14.56;100.00
32109;BME280;18624;50.042;8.436;2023-05-09T05:13:40;100416.91;;;14.08;100.00
32109;BME280;18624;50.042;8.436;2023-05-09T05:16:06;100562.59;;;15.03;100.00
32109;BME280;18624;50.042;8.436;2023-05-09T05:18:33;100475.50;;;14.53;100.00
32109;BME280;18624;50.042;8.436;2023-05-09T05:20:59;100562.84;;;15.18;100.00
32109;BME280;18624;50.042;8.436;2023-05-09T05:23:26;100487.06;;;14.69;100.00
32109;BME280;18624;50.042;8.436;2023-05-09T05:25:53;100358.00;;;13.84;100.00
32109;BME280;18624;50.042;8.436;2023-05-09T05:28:20;100566.81;;;15.26;100.00
32109;BME280;18624;50.042;8.436;2023-05-09T05:30:47;100314.81;;;13.50;100.00
32109;BME280;18624;50.042;8.436;2023-05-09T05:33:13;100457.88;;;14.50;100.00
32109;BME280;18624;50.042;8.436;2023-05-09T05:35:40;100447.91;;;14.53;100.00
32109;BME280;18624;50.042;8.436;2023-05-09T05:38:06;100423.22;;;14.49;100.00
32109;BME280;18624;50.042;8.436;2023-05-09T05:40:33;100516.47;;;15.13;100.00
32109;BME280;18624;50.042;8.436;2023-05-09T05:43:02;100383.59;;;14.25;100.00
32109;BME280;18624;50.042;8.436;2023-05-09T05:45:30;100448.31;;;14.73;100.00
32109;BME280;18624;50.042;8.436;2023-05-09T05:47:59;100441.44;;;14.78;100.00
32109;BME280;18624;50.042;8.436;2023-05-09T05:50:29;100550.94;;;15.58;100.00
32109;BME280;18624;50.042;8.436;2023-05-09T05:52:55;100555.06;;;15.62;100.00
32109;BME280;18624;50.042;8.436;2023-05-09T05:55:22;100476.75;;;15.10;100.00
32109;BME280;18624;50.042;8.436;2023-05-09T05:57:49;100503.03;;;15.33;100.00
32109;BME280;18624;50.042;8.436;2023-05-09T06:00:15;100545.47;;;15.67;100.00
32109;BME280;18624;50.042;8.436;2023-05-09T06:02:46;100478.00;;;15.18;100.00
32109;BME280;18624;50.042;8.436;2023-05-09T06:05:21;100457.41;;;15.01;100.00
32109;BME280;18624;50.042;8.436;2023-05-09T06:07:48;100507.78;;;15.42;100.00
32109;BME280;18624;50.042;8.436;2023-05-09T06:10:15;100560.34;;;15.69;100.00
32109;BME280;18624;50.042;8.436;2023-05-09T06:12:43;100494.28;;;15.35;100.00
32109;BME280;18624;50.042;8.436;2023-05-09T06:15:10;100517.75;;;15.49;100.00
32109;BME280;18624;50.042;8.436;2023-05-09T06:17:40;100449.63;;;15.09;100.00
32109;BME280;18624;50.042;8.436;2023-05-09T06:20:07;100480.94;;;15.24;100.00
32109;BME280;18624;50.042;8.436;2023-05-09T06:22:33;100436.56;;;14.91;100.00
32109;BME280;18624;50.042;8.436;2023-05-09T06:24:59;100457.44;;;15.10;100.00
32109;BME280;18624;50.042;8.436;2023-05-09T06:27:26;100412.00;;;14.84;100.00
32109;BME280;18624;50.042;8.436;2023-05-09T06:29:52;100381.63;;;14.65;100.00
32109;BME280;18624;50.042;8.436;2023-05-09T06:32:19;100527.94;;;15.70;100.00
32109;BME280;18624;50.042;8.436;2023-05-09T06:34:45;100485.09;;;15.47;100.00
32109;BME280;18624;50.042;8.436;2023-05-09T06:37:11;100394.84;;;14.98;100.00
32109;BME280;18624;50.042;8.436;2023-05-09T06:39:38;100520.13;;;15.87;100.00
32109;BME280;18624;50.042;8.436;2023-05-09T06:42:04;100460.56;;;15.49;100.00
32109;BME280;18624;50.042;8.436;2023-05-09T06:44:36;100386.72;;;15.04;100.00
32109;BME280;18624;50.042;8.436;2023-05-09T06:47:02;100464.53;;;15.57;100.00
32109;BME280;18624;50.042;8.436;2023-05-09T06:49:29;100474.69;;;15.69;100.00
32109;BME280;18624;50.042;8.436;2023-05-09T06:51:55;100497.53;;;15.88;100.00
32109;BME280;18624;50.042;8.436;2023-05-09T06:54:21;100504.91;;;15.91;100.00
32109;BME280;18624;50.042;8.436;2023-05-09T06:56:48;100462.25;;;15.65;100.00
32109;BME280;18624;50.042;8.436;2023-05-09T06:59:14;100509.03;;;16.05;100.00
32109;BME280;18624;50.042;8.436;2023-05-09T07:01:41;100465.63;;;15.78;100.00
32109;BME280;18624;50.042;8.436;2023-05-09T07:04:08;100263.13;;;14.53;100.00
32109;BME280;18624;50.042;8.436;2023-05-09T07:06:34;100423.09;;;15.66;100.00
32109;BME280;18624;50.042;8.436;2023-05-09T07:09:01;100486.75;;;16.18;100.00
32109;BME280;18624;50.042;8.436;2023-05-09T07:11:27;100360.78;;;15.47;100.00
32109;BME280;18624;50.042;8.436;2023-05-09T07:13:53;100482.25;;;16.30;100.00
32109;BME280;18624;50.042;8.436;2023-05-09T07:16:20;100383.03;;;15.71;100.00
32109;BME280;18624;50.042;8.436;2023-05-09T07:18:48;100432.72;;;16.08;100.00
32109;BME280;18624;50.042;8.436;2023-05-09T07:21:14;100433.91;;;16.16;100.00
32109;BME280;18624;50.042;8.436;2023-05-09T07:23:40;100380.41;;;15.86;100.00
32109;BME280;18624;50.042;8.436;2023-05-09T07:26:07;100493.53;;;16.59;100.00
32109;BME280;18624;50.042;8.436;2023-05-09T07:28:33;100432.81;;;16.23;100.00
32109;BME280;18624;50.042;8.436;2023-05-09T07:30:59;100225.75;;;14.79;100.00
32109;BME280;18624;50.042;8.436;2023-05-09T07:33:26;100224.66;;;14.77;100.00
32109;BME280;18624;50.042;8.436;2023-05-09T07:35:53;100432.25;;;16.09;100.00
32109;BME280;18624;50.042;8.436;2023-05-09T07:38:19;100215.81;;;14.73;100.00
32109;BME280;18624;50.042;8.436;2023-05-09T07:40:46;100309.59;;;15.18;100.00
32109;BME280;18624;50.042;8.436;2023-05-09T07:43:12;100318.16;;;15.39;100.00
32109;BME280;18624;50.042;8.436;2023-05-09T07:45:38;100328.13;;;15.36;100.00
32109;BME280;18624;50.042;8.436;2023-05-09T07:48:05;100439.78;;;16.09;100.00
32109;BME280;18624;50.042;8.436;2023-05-09T07:50:32;100469.06;;;16.25;100.00
32109;BME280;18624;50.042;8.436;2023-05-09T07:52:58;100391.78;;;15.79;100.00
32109;BME280;18624;50.042;8.436;2023-05-09T07:55:25;100448.19;;;16.14;100.00
32109;BME280;18624;50.042;8.436;2023-05-09T07:57:51;100356.34;;;15.59;100.00
32109;BME280;18624;50.042;8.436;2023-05-09T08:00:18;100228.50;;;14.70;100.00
32109;BME280;18624;50.042;8.436;2023-05-09T08:02:52;100389.31;;;15.81;100.00
32109;BME280;18624;50.042;8.436;2023-05-09T08:05:19;100333.81;;;15.42;100.00
32109;BME280;18624;50.042;8.436;2023-05-09T08:07:45;100444.50;;;16.17;100.00
32109;BME280;18624;50.042;8.436;2023-05-09T08:10:12;100431.91;;;16.16;100.00
32109;BME280;18624;50.042;8.436;2023-05-09T08:12:38;100396.66;;;15.93;100.00
32109;BME280;18624;50.042;8.436;2023-05-09T08:15:05;100366.75;;;15.73;100.00
32109;BME280;18624;50.042;8.436;2023-05-09T08:17:32;100366.63;;;15.77;100.00
32109;BME280;18624;50.042;8.436;2023-05-09T08:19:58;100426.81;;;16.24;100.00
32109;BME280;18624;50.042;8.436;2023-05-09T08:22:24;100358.94;;;15.81;100.00
32109;BME280;18624;50.042;8.436;2023-05-09T08:24:51;100269.41;;;15.27;100.00
32109;BME280;18624;50.042;8.436;2023-05-09T08:27:17;100384.63;;;16.05;100.00
32109;BME280;18624;50.042;8.436;2023-05-09T08:29:43;100407.00;;;16.26;100.00
32109;BME280;18624;50.042;8.436;2023-05-09T08:32:10;100366.09;;;15.97;100.00
32109;BME280;18624;50.042;8.436;2023-05-09T08:34:36;100384.28;;;16.22;100.00
32109;BME280;18624;50.042;8.436;2023-05-09T08:37:03;100403.59;;;16.31;100.00
32109;BME280;18624;50.042;8.436;2023-05-09T08:39:30;100402.66;;;16.34;100.00
32109;BME280;18624;50.042;8.436;2023-05-09T08:42:00;100395.44;;;16.36;100.00
32109;BME280;18624;50.042;8.436;2023-05-09T08:44:29;100356.06;;;16.08;100.00
32109;BME280;18624;50.042;8.436;2023-05-09T08:47:01;100399.84;;;16.43;100.00
32109;BME280;18624;50.042;8.436;2023-05-09T08:49:28;100336.13;;;16.04;100.00
32109;BME280;18624;50.042;8.436;2023-05-09T08:51:55;100294.28;;;15.78;100.00
32109;BME280;18624;50.042;8.436;2023-05-09T08:54:23;100266.22;;;15.61;100.00
32109;BME280;18624;50.042;8.436;2023-05-09T08:56:50;100394.25;;;16.52;100.00
32109;BME280;18624;50.042;8.436;2023-05-09T08:59:17;100331.31;;;16.14;100.00
32109;BME280;18624;50.042;8.436;2023-05-09T09:01:44;100330.88;;;16.06;100.00
32109;BME280;18624;50.042;8.436;2023-05-09T09:04:11;100284.59;;;15.83;100.00
32109;BME280;18624;50.042;8.436;2023-05-09T09:06:38;100382.16;;;16.50;100.00
32109;BME280;18624;50.042;8.436;2023-05-09T09:09:06;100348.63;;;16.24;100.00
32109;BME280;18624;50.042;8.436;2023-05-09T09:11:34;100351.97;;;16.28;100.00
32109;BME280;18624;50.042;8.436;2023-05-09T09:14:08;100379.66;;;16.52;100.00
32109;BME280;18624;50.042;8.436;2023-05-09T09:16:37;100332.78;;;16.24;100.00
32109;BME280;18624;50.042;8.436;2023-05-09T09:19:08;100339.03;;;16.34;100.00
32109;BME280;18624;50.042;8.436;2023-05-09T09:21:36;100264.13;;;15.89;100.00
32109;BME280;18624;50.042;8.436;2023-05-09T09:24:06;100364.72;;;16.58;100.00
32109;BME280;18624;50.042;8.436;2023-05-09T09:26:33;100277.47;;;16.00;100.00
32109;BME280;18624;50.042;8.436;2023-05-09T09:28:59;100124.06;;;15.05;100.00
32109;BME280;18624;50.042;8.436;2023-05-09T09:31:30;100359.13;;;16.67;100.00
32109;BME280;18624;50.042;8.436;2023-05-09T09:34:01;100353.66;;;16.58;100.00
32109;BME280;18624;50.042;8.436;2023-05-09T09:36:28;100337.88;;;16.50;100.00
32109;BME280;18624;50.042;8.436;2023-05-09T09:38:57;100312.28;;;16.40;100.00
32109;BME280;18624;50.042;8.436;2023-05-09T09:41:38;100325.56;;;16.51;100.00
32109;BME280;18624;50.042;8.436;2023-05-09T09:44:09;100344.19;;;16.74;100.00
32109;BME280;18624;50.042;8.436;2023-05-09T09:49:20;100218.47;;;16.03;100.00
32109;BME280;18624;50.042;8.436;2023-05-09T09:51:57;100289.13;;;16.52;100.00
32109;BME280;18624;50.042;8.436;2023-05-09T09:54:27;100297.78;;;16.69;100.00
32109;BME280;18624;50.042;8.436;2023-05-09T09:56:53;100317.44;;;16.95;100.00
32109;BME280;18624;50.042;8.436;2023-05-09T09:59:23;100114.72;;;15.69;100.00
32109;BME280;18624;50.042;8.436;2023-05-09T10:01:59;100309.94;;;17.10;100.00
32109;BME280;18624;50.042;8.436;2023-05-09T10:04:37;100308.31;;;17.18;100.00
32109;BME280;18624;50.042;8.436;2023-05-09T10:07:05;100213.00;;;16.57;100.00
32109;BME280;18624;50.042;8.436;2023-05-09T10:09:33;100307.47;;;17.27;100.00
32109;BME280;18624;50.042;8.436;2023-05-09T10:12:05;100239.06;;;16.89;100.00
32109;BME280;18624;50.042;8.436;2023-05-09T10:14:36;100219.56;;;16.83;100.00
32109;BME280;18624;50.042;8.436;2023-05-09T10:17:04;100198.06;;;16.63;100.00
32109;BME280;18624;50.042;8.436;2023-05-09T10:19:31;100250.66;;;17.02;100.00
32109;BME280;18624;50.042;8.436;2023-05-09T10:22:03;100153.19;;;16.44;100.00
32109;BME280;18624;50.042;8.436;2023-05-09T10:24:34;100283.22;;;17.22;100.00
32109;BME280;18624;50.042;8.436;2023-05-09T10:27:03;100274.59;;;17.20;100.00
32109;BME280;18624;50.042;8.436;2023-05-09T10:29:34;100125.69;;;16.26;100.00
32109;BME280;18624;50.042;8.436;2023-05-09T10:32:15;100265.06;;;17.21;100.00
32109;BME280;18624;50.042;8.436;2023-05-09T10:34:48;100200.09;;;16.78;100.00
32109;BME280;18624;50.042;8.436;2023-05-09T10:37:16;100162.38;;;16.65;100.00
32109;BME280;18624;50.042;8.436;2023-05-09T10:39:43;100201.75;;;16.99;100.00
32109;BME280;18624;50.042;8.436;2023-05-09T10:42:12;100197.94;;;17.11;100.00
32109;BME280;18624;50.042;8.436;2023-05-09T10:44:39;100214.13;;;17.33;100.00
32109;BME280;18624;50.042;8.436;2023-05-09T10:47:05;100239.13;;;17.68;100.00
32109;BME280;18624;50.042;8.436;2023-05-09T10:49:32;100203.91;;;17.54;100.00
32109;BME280;18624;50.042;8.436;2023-05-09T10:52:02;100236.16;;;17.87;100.00
32109;BME280;18624;50.042;8.436;2023-05-09T10:54:29;100198.81;;;17.67;100.00
32109;BME280;18624;50.042;8.436;2023-05-09T10:57:01;100190.97;;;17.66;100.00
32109;BME280;18624;50.042;8.436;2023-05-09T11:02:00;100061.25;;;16.79;100.00
32109;BME280;18624;50.042;8.436;2023-05-09T11:04:29;100215.34;;;17.77;100.00
32109;BME280;18624;50.042;8.436;2023-05-09T11:06:56;100205.22;;;17.74;100.00
32109;BME280;18624;50.042;8.436;2023-05-09T11:09:26;100211.22;;;17.72;100.00
32109;BME280;18624;50.042;8.436;2023-05-09T11:11:54;100196.59;;;17.71;100.00
32109;BME280;18624;50.042;8.436;2023-05-09T11:14:47;100015.91;;;16.47;100.00
32109;BME280;18624;50.042;8.436;2023-05-09T11:22:17;100197.22;;;17.61;100.00
32109;BME280;18624;50.042;8.436;2023-05-09T11:24:46;100195.66;;;17.60;100.00
32109;BME280;18624;50.042;8.436;2023-05-09T11:27:25;100149.03;;;17.23;100.00
32109;BME280;18624;50.042;8.436;2023-05-09T11:29:53;100151.41;;;17.30;100.00
32109;BME280;18624;50.042;8.436;2023-05-09T11:32:20;100178.69;;;17.52;100.00
32109;BME280;18624;50.042;8.436;2023-05-09T11:34:48;100110.66;;;17.01;100.00
32109;BME280;18624;50.042;8.436;2023-05-09T11:37:15;100099.41;;;16.90;100.00
32109;BME280;18624;50.042;8.436;2023-05-09T11:39:59;100108.66;;;17.02;100.00
32109;BME280;18624;50.042;8.436;2023-05-09T11:42:27;100167.91;;;17.39;100.00
32109;BME280;18624;50.042;8.436;2023-05-09T11:44:55;100166.19;;;17.42;100.00
32109;BME280;18624;50.042;8.436;2023-05-09T11:47:22;100108.19;;;17.03;100.00
32109;BME280;18624;50.042;8.436;2023-05-09T11:49:49;100033.16;;;16.57;100.00
32109;BME280;18624;50.042;8.436;2023-05-09T11:52:17;100094.44;;;17.09;100.00
32109;BME280;18624;50.042;8.436;2023-05-09T11:54:43;100150.75;;;17.56;100.00
32109;BME280;18624;50.042;8.436;2023-05-09T11:57:10;100101.56;;;17.30;100.00
32109;BME280;18624;50.042;8.436;2023-05-09T11:59:43;100136.50;;;17.63;100.00
32109;BME280;18624;50.042;8.436;2023-05-09T12:02:10;100072.34;;;17.14;100.00
32109;BME280;18624;50.042;8.436;2023-05-09T12:04:37;100118.44;;;17.67;100.00
32109;BME280;18624;50.042;8.436;2023-05-09T12:07:04;100088.28;;;17.55;100.00
32109;BME280;18624;50.042;8.436;2023-05-09T12:09:32;100127.06;;;17.90;100.00
32109;BME280;18624;50.042;8.436;2023-05-09T12:12:00;100117.78;;;17.93;100.00
32109;BME280;18624;50.042;8.436;2023-05-09T12:14:31;100079.03;;;17.78;100.00
32109;BME280;18624;50.042;8.436;2023-05-09T12:16:57;100073.97;;;17.77;100.00
32109;BME280;18624;50.042;8.436;2023-05-09T12:19:25;100049.91;;;17.68;100.00
32109;BME280;18624;50.042;8.436;2023-05-09T12:21:55;100102.16;;;18.16;100.00
32109;BME280;18624;50.042;8.436;2023-05-09T12:24:27;100092.84;;;18.19;100.00
32109;BME280;18624;50.042;8.436;2023-05-09T12:26:55;99990.28;;;17.52;100.00
32109;BME280;18624;50.042;8.436;2023-05-09T12:29:22;100037.59;;;17.89;100.00
32109;BME280;18624;50.042;8.436;2023-05-09T12:31:50;100061.66;;;18.24;100.00
32109;BME280;18624;50.042;8.436;2023-05-09T12:34:17;100081.97;;;18.41;100.00
32109;BME280;18624;50.042;8.436;2023-05-09T12:36:45;99958.94;;;17.66;100.00
32109;BME280;18624;50.042;8.436;2023-05-09T12:39:19;100069.69;;;18.48;100.00
32109;BME280;18624;50.042;8.436;2023-05-09T12:41:50;100065.44;;;18.53;100.00
32109;BME280;18624;50.042;8.436;2023-05-09T12:44:26;100031.44;;;18.32;100.00
32109;BME280;18624;50.042;8.436;2023-05-09T12:46:59;99953.66;;;17.89;100.00
32109;BME280;18624;50.042;8.436;2023-05-09T12:49:26;100053.47;;;18.67;100.00
32109;BME280;18624;50.042;8.436;2023-05-09T12:51:54;100042.16;;;18.70;100.00
32109;BME280;18624;50.042;8.436;2023-05-09T12:54:22;100038.13;;;18.71;100.00
32109;BME280;18624;50.042;8.436;2023-05-09T12:56:50;100039.94;;;18.75;100.00
32109;BME280;18624;50.042;8.436;2023-05-09T12:59:22;100027.06;;;18.77;100.00